createdAt,value
2018-12-20T00:01:55.013Z,22.93
2018-12-20T00:04:23.651Z,24.43
2018-12-20T00:06:52.253Z,23.38
2018-12-20T00:09:21.103Z,26.00
2018-12-20T00:11:49.735Z,24.82
2018-12-20T00:14:18.479Z,26.55
2018-12-20T00:16:49.112Z,25.43
2018-12-20T00:19:17.684Z,24.92
2018-12-20T00:21:46.563Z,26.90
2018-12-20T00:24:15.384Z,25.65
2018-12-20T00:26:44.004Z,24.87
2018-12-20T00:29:12.693Z,24.47
2018-12-20T00:31:41.206Z,25.02
2018-12-20T00:34:09.742Z,27.32
2018-12-20T00:36:38.375Z,26.55
2018-12-20T00:39:08.059Z,29.57
2018-12-20T00:41:36.631Z,26.12
2018-12-20T00:44:05.333Z,26.20
2018-12-20T00:46:33.948Z,27.58
2018-12-20T00:49:02.582Z,27.42
2018-12-20T00:51:31.215Z,27.87
2018-12-20T00:54:00.049Z,25.27
2018-12-20T00:56:28.680Z,25.50
2018-12-20T00:58:57.313Z,25.70
2018-12-20T01:01:25.932Z,29.65
2018-12-20T01:03:54.570Z,25.02
2018-12-20T01:06:23.159Z,27.75
2018-12-20T01:08:51.760Z,26.20
2018-12-20T01:11:20.486Z,25.08
2018-12-20T01:13:49.149Z,26.70
2018-12-20T01:16:17.689Z,25.35
2018-12-20T01:18:46.299Z,26.75
2018-12-20T01:21:15.019Z,25.37
2018-12-20T01:23:43.614Z,25.70
2018-12-20T01:26:12.305Z,26.40
2018-12-20T01:28:40.936Z,24.95
2018-12-20T01:31:09.587Z,30.20
2018-12-20T01:33:38.294Z,26.33
2018-12-20T01:36:06.867Z,26.33
2018-12-20T01:38:35.506Z,27.27
2018-12-20T01:41:04.149Z,26.75
2018-12-20T01:43:32.869Z,24.27
2018-12-20T01:46:01.484Z,29.35
2018-12-20T01:48:30.109Z,27.45
2018-12-20T01:50:58.719Z,26.37
2018-12-20T01:53:27.383Z,25.35
2018-12-20T01:55:56.026Z,26.10
2018-12-20T01:58:24.624Z,25.00
2018-12-20T02:00:53.318Z,26.55
2018-12-20T02:03:21.996Z,26.52
2018-12-20T02:05:50.556Z,22.60
2018-12-20T02:08:19.089Z,24.50
2018-12-20T02:10:47.738Z,24.75
2018-12-20T02:13:16.550Z,29.48
2018-12-20T02:15:45.284Z,26.12
2018-12-20T02:18:13.915Z,25.95
2018-12-20T02:20:42.672Z,26.10
2018-12-20T02:23:11.366Z,27.58
2018-12-20T02:25:40.017Z,26.12
2018-12-20T02:28:08.555Z,27.15
2018-12-20T02:30:37.304Z,26.75
2018-12-20T02:33:05.903Z,29.72
2018-12-20T02:35:35.092Z,29.77
2018-12-20T02:38:03.738Z,27.75
2018-12-20T02:40:32.317Z,28.57
2018-12-20T02:43:01.020Z,31.85
2018-12-20T02:45:29.694Z,31.27
2018-12-20T02:47:58.759Z,28.90
2018-12-20T02:50:27.298Z,29.35
2018-12-20T02:52:55.853Z,34.03
2018-12-20T02:55:24.536Z,27.35
2018-12-20T02:57:53.102Z,29.57
2018-12-20T03:00:21.654Z,26.17
2018-12-20T03:02:50.296Z,27.30
2018-12-20T03:05:18.892Z,26.17
2018-12-20T03:07:48.012Z,27.13
2018-12-20T03:10:16.713Z,29.02
2018-12-20T03:12:45.285Z,35.80
2018-12-20T03:15:19.840Z,28.50
2018-12-20T03:17:44.456Z,26.70
2018-12-20T03:20:13.146Z,27.05
2018-12-20T03:22:41.745Z,28.50
2018-12-20T03:25:10.329Z,25.80
2018-12-20T03:27:38.857Z,24.92
2018-12-20T03:30:07.534Z,26.85
2018-12-20T03:32:36.519Z,25.90
2018-12-20T03:35:05.345Z,27.05
2018-12-20T03:37:33.879Z,23.40
2018-12-20T03:40:02.780Z,25.55
2018-12-20T03:42:31.723Z,23.98
2018-12-20T03:45:00.334Z,25.57
2018-12-20T03:47:29.132Z,25.85
2018-12-20T03:49:57.878Z,25.00
2018-12-20T03:52:26.658Z,29.23
2018-12-20T03:54:55.242Z,23.90
2018-12-20T03:57:23.803Z,25.55
2018-12-20T03:59:52.490Z,22.70
2018-12-20T04:02:23.155Z,20.62
2018-12-20T04:04:51.804Z,22.07
2018-12-20T04:07:39.120Z,26.00
2018-12-20T04:10:08.048Z,24.12
2018-12-20T04:12:36.962Z,28.70
2018-12-20T04:15:06.351Z,25.77
2018-12-20T04:17:34.920Z,24.60
2018-12-20T04:20:03.600Z,19.35
2018-12-20T04:22:32.144Z,24.00
2018-12-20T04:25:00.705Z,22.60
2018-12-20T04:27:29.541Z,21.90
2018-12-20T04:29:58.388Z,21.87
2018-12-20T04:32:27.027Z,22.17
2018-12-20T04:34:55.780Z,20.12
2018-12-20T04:37:24.511Z,23.60
2018-12-20T04:39:53.125Z,21.20
2018-12-20T04:42:21.902Z,26.52
2018-12-20T04:44:50.536Z,25.70
2018-12-20T04:47:19.130Z,20.27
2018-12-20T04:49:47.858Z,17.48
2018-12-20T04:52:16.544Z,26.20
2018-12-20T04:54:45.114Z,22.85
2018-12-20T04:57:13.757Z,19.50
2018-12-20T04:59:42.483Z,25.10
2018-12-20T05:02:11.056Z,22.35
2018-12-20T05:04:39.701Z,24.57
2018-12-20T05:07:08.366Z,23.90
2018-12-20T05:09:36.931Z,27.32
2018-12-20T05:12:05.597Z,23.12
2018-12-20T05:14:34.202Z,20.32
2018-12-20T05:17:03.075Z,21.50
2018-12-20T05:19:31.893Z,19.67
2018-12-20T05:22:00.691Z,25.88
2018-12-20T05:24:29.555Z,21.70
2018-12-20T05:26:58.221Z,18.90
2018-12-20T05:29:26.766Z,25.75
2018-12-20T05:31:55.436Z,24.20
2018-12-20T05:34:24.050Z,23.98
2018-12-20T05:36:52.792Z,26.95
2018-12-20T05:39:21.396Z,37.60
2018-12-20T05:41:49.909Z,21.25
2018-12-20T05:44:18.475Z,29.85
2018-12-20T05:46:47.102Z,22.60
2018-12-20T05:49:15.688Z,24.67
2018-12-20T05:51:44.193Z,22.17
2018-12-20T05:54:12.746Z,28.55
2018-12-20T05:56:41.268Z,25.08
2018-12-20T05:59:09.864Z,22.82
2018-12-20T06:01:38.569Z,21.45
2018-12-20T06:04:07.318Z,22.85
2018-12-20T06:06:35.925Z,25.65
2018-12-20T06:09:07.269Z,22.52
2018-12-20T06:11:35.951Z,24.77
2018-12-20T06:14:04.634Z,25.48
2018-12-20T06:16:33.323Z,25.35
2018-12-20T06:19:01.896Z,24.15
2018-12-20T06:21:30.492Z,22.77
2018-12-20T06:23:58.997Z,23.40
2018-12-20T06:26:27.508Z,26.20
2018-12-20T06:28:56.024Z,19.27
2018-12-20T06:31:24.539Z,22.70
2018-12-20T06:33:53.046Z,22.75
2018-12-20T06:36:21.526Z,19.65
2018-12-20T06:38:50.013Z,21.15
2018-12-20T06:41:18.518Z,21.45
2018-12-20T06:43:47.028Z,20.70
2018-12-20T06:46:21.057Z,20.82
2018-12-20T06:48:46.059Z,21.33
2018-12-20T06:51:14.607Z,22.40
2018-12-20T06:53:43.119Z,21.82
2018-12-20T06:56:11.660Z,21.27
2018-12-20T06:58:40.159Z,19.67
2018-12-20T07:01:08.682Z,21.37
2018-12-20T07:03:37.187Z,20.75
2018-12-20T07:06:05.723Z,20.60
2018-12-20T07:08:34.276Z,21.75
2018-12-20T07:11:02.774Z,19.55
2018-12-20T07:13:31.306Z,23.57
2018-12-20T07:15:59.844Z,19.55
2018-12-20T07:18:28.346Z,21.15
2018-12-20T07:20:56.863Z,23.52
2018-12-20T07:23:25.371Z,21.75
2018-12-20T07:25:53.877Z,21.05
2018-12-20T07:28:22.408Z,22.27
2018-12-20T07:30:50.901Z,22.58
2018-12-20T07:33:19.423Z,22.98
2018-12-20T07:35:47.930Z,22.65
2018-12-20T07:38:16.434Z,23.40
2018-12-20T07:40:45.013Z,23.02
2018-12-20T07:43:13.646Z,23.62
2018-12-20T07:45:42.170Z,25.72
2018-12-20T07:48:10.682Z,23.18
2018-12-20T07:50:39.240Z,24.90
2018-12-20T07:53:07.825Z,24.92
2018-12-20T07:55:36.322Z,25.82
2018-12-20T07:58:04.841Z,23.75
2018-12-20T08:00:35.237Z,23.73
2018-12-20T08:03:04.018Z,23.45
2018-12-20T08:05:32.550Z,25.02
2018-12-20T08:08:01.046Z,26.52
2018-12-20T08:10:29.543Z,25.23
2018-12-20T08:12:58.040Z,24.85
2018-12-20T08:15:26.536Z,25.77
2018-12-20T08:17:55.064Z,25.05
2018-12-20T08:20:23.554Z,23.70
2018-12-20T08:22:52.059Z,26.77
2018-12-20T08:25:20.549Z,25.08
2018-12-20T08:27:49.060Z,24.85
2018-12-20T08:30:17.554Z,26.02
2018-12-20T08:32:46.079Z,23.57
2018-12-20T08:35:14.957Z,22.60
2018-12-20T08:37:43.455Z,24.77
2018-12-20T08:40:11.972Z,26.05
2018-12-20T08:42:40.448Z,24.35
2018-12-20T08:45:08.966Z,26.65
2018-12-20T08:47:37.489Z,23.52
2018-12-20T08:50:06.938Z,25.55
2018-12-20T08:52:35.489Z,24.85
2018-12-20T08:55:04.235Z,26.07
2018-12-20T08:57:32.755Z,26.55
2018-12-20T09:00:01.239Z,25.45
2018-12-20T09:02:29.753Z,25.25
2018-12-20T09:04:58.268Z,24.85
2018-12-20T09:07:33.379Z,25.55
2018-12-20T09:10:02.969Z,24.70
2018-12-20T09:12:31.501Z,25.17
2018-12-20T09:15:00.006Z,25.65
2018-12-20T09:17:28.673Z,46.55
2018-12-20T09:19:57.166Z,28.23
2018-12-20T09:22:25.666Z,25.97
2018-12-20T09:24:54.168Z,25.75
2018-12-20T09:27:22.681Z,28.55
2018-12-20T09:29:51.163Z,29.00
2018-12-20T09:32:19.684Z,28.12
2018-12-20T09:34:48.286Z,25.88
2018-12-20T09:37:16.788Z,26.55
2018-12-20T09:39:45.291Z,27.20
2018-12-20T09:42:13.810Z,26.48
2018-12-20T09:44:42.399Z,26.12
2018-12-20T09:47:16.138Z,29.07
2018-12-20T09:49:44.634Z,29.10
2018-12-20T09:52:13.172Z,26.87
2018-12-20T09:54:41.697Z,27.73
2018-12-20T09:57:10.194Z,28.45
2018-12-20T09:59:38.725Z,26.10
2018-12-20T10:02:07.237Z,27.73
2018-12-20T10:04:35.739Z,28.30
2018-12-20T10:07:04.258Z,27.10
2018-12-20T10:09:32.749Z,26.68
2018-12-20T10:12:01.234Z,28.57
2018-12-20T10:14:29.737Z,25.68
2018-12-20T10:16:58.243Z,26.55
2018-12-20T10:19:26.978Z,25.82
2018-12-20T10:21:55.488Z,27.75
2018-12-20T10:24:23.995Z,26.77
2018-12-20T10:26:52.504Z,25.90
2018-12-20T10:29:20.986Z,27.52
2018-12-20T10:31:49.571Z,27.00
2018-12-20T10:34:18.085Z,30.00
2018-12-20T10:36:46.582Z,28.75
2018-12-20T10:39:15.097Z,28.90
2018-12-20T10:41:43.592Z,25.90
2018-12-20T10:44:12.110Z,27.13
2018-12-20T10:46:40.704Z,24.77
2018-12-20T10:49:09.309Z,26.00
2018-12-20T10:51:37.861Z,26.87
2018-12-20T10:54:06.436Z,25.77
2018-12-20T10:56:34.989Z,27.10
2018-12-20T10:59:03.531Z,26.02
2018-12-20T11:01:37.188Z,25.75
2018-12-20T11:04:11.110Z,26.30
2018-12-20T11:06:44.986Z,24.60
2018-12-20T11:09:20.450Z,24.92
2018-12-20T11:11:54.567Z,26.37
2018-12-20T11:14:23.078Z,26.35
2018-12-20T11:16:51.610Z,25.92
2018-12-20T11:19:20.521Z,25.85
2018-12-20T11:21:49.027Z,25.92
2018-12-20T11:24:17.697Z,26.37
2018-12-20T11:26:46.212Z,26.07
2018-12-20T11:29:14.798Z,26.05
2018-12-20T11:31:43.334Z,26.50
2018-12-20T11:34:11.880Z,27.13
2018-12-20T11:36:40.363Z,28.02
2018-12-20T11:39:08.868Z,26.30
2018-12-20T11:41:37.379Z,28.17
2018-12-20T11:44:05.883Z,28.55
2018-12-20T11:46:34.416Z,26.00
2018-12-20T11:49:02.922Z,26.00
2018-12-20T11:51:31.434Z,27.02
2018-12-20T11:53:59.974Z,25.23
2018-12-20T11:56:28.519Z,25.95
2018-12-20T11:58:57.143Z,24.77
2018-12-20T12:01:25.809Z,30.00
2018-12-20T12:03:57.536Z,26.52
2018-12-20T12:06:25.869Z,29.48
2018-12-20T12:08:54.369Z,30.82
2018-12-20T12:11:22.850Z,31.37
2018-12-20T12:13:51.330Z,27.67
2018-12-20T12:16:19.863Z,28.10
2018-12-20T12:18:48.379Z,33.08
2018-12-20T12:21:16.900Z,25.48
2018-12-20T12:23:45.402Z,25.62
2018-12-20T12:26:14.010Z,30.23
2018-12-20T12:28:42.494Z,32.85
2018-12-20T12:31:11.089Z,28.15
2018-12-20T12:33:39.589Z,27.30
2018-12-20T12:36:08.103Z,28.12
2018-12-20T12:38:36.578Z,32.45
2018-12-20T12:41:05.075Z,24.92
2018-12-20T12:43:33.564Z,27.75
2018-12-20T12:46:02.084Z,27.37
2018-12-20T12:48:30.557Z,29.27
2018-12-20T12:50:59.049Z,25.05
2018-12-20T12:53:27.605Z,24.20
2018-12-20T12:55:56.109Z,25.37
2018-12-20T12:58:24.640Z,25.95
2018-12-20T13:00:53.138Z,27.07
2018-12-20T13:03:21.644Z,23.92
2018-12-20T13:05:50.146Z,25.37
2018-12-20T13:08:18.651Z,24.57
2018-12-20T13:10:47.167Z,25.10
2018-12-20T13:13:22.745Z,24.23
2018-12-20T13:15:51.251Z,26.87
2018-12-20T13:18:19.756Z,26.52
2018-12-20T13:20:48.267Z,25.48
2018-12-20T13:23:16.767Z,24.47
2018-12-20T13:25:45.304Z,25.27
2018-12-20T13:28:13.786Z,25.80
2018-12-20T13:30:42.295Z,25.70
2018-12-20T13:33:10.796Z,25.48
2018-12-20T13:35:39.339Z,30.17
2018-12-20T13:38:07.833Z,24.32
2018-12-20T13:40:36.376Z,26.55
2018-12-20T13:43:05.897Z,27.90
2018-12-20T13:45:34.515Z,36.03
2018-12-20T13:48:04.145Z,40.45
2018-12-20T13:50:32.959Z,42.78
2018-12-20T13:53:01.546Z,31.87
2018-12-20T13:55:30.072Z,28.15
2018-12-20T13:57:58.589Z,34.20
2018-12-20T14:00:27.130Z,25.97
2018-12-20T14:02:55.642Z,25.97
2018-12-20T14:05:24.178Z,25.68
2018-12-20T14:07:58.809Z,25.57
2018-12-20T14:10:23.250Z,24.55
2018-12-20T14:12:51.803Z,28.02
2018-12-20T14:15:20.361Z,27.10
2018-12-20T14:17:48.960Z,27.60
2018-12-20T14:20:17.497Z,27.35
2018-12-20T14:22:46.006Z,27.45
2018-12-20T14:25:14.540Z,28.98
2018-12-20T14:27:43.079Z,27.82
2018-12-20T14:30:11.614Z,29.52
2018-12-20T14:32:40.130Z,27.62
2018-12-20T14:35:08.670Z,27.75
2018-12-20T14:37:37.324Z,27.60
2018-12-20T14:40:07.701Z,28.35
2018-12-20T14:42:37.775Z,31.73
2018-12-20T14:45:07.159Z,32.53
2018-12-20T14:47:35.688Z,32.50
2018-12-20T14:50:04.500Z,32.65
2018-12-20T14:52:33.031Z,36.88
2018-12-20T14:55:01.627Z,34.67
2018-12-20T14:57:30.127Z,32.75
2018-12-20T14:59:58.629Z,30.50
2018-12-20T15:02:27.155Z,32.75
2018-12-20T15:04:55.684Z,35.73
2018-12-20T15:07:24.234Z,33.78
2018-12-20T15:09:52.734Z,33.53
2018-12-20T15:12:21.236Z,34.08
2018-12-20T15:14:49.742Z,27.85
2018-12-20T15:17:18.452Z,30.40
2018-12-20T15:19:46.976Z,30.85
2018-12-20T15:22:15.528Z,31.50
2018-12-20T15:24:44.171Z,30.00
2018-12-20T15:27:12.699Z,30.92
2018-12-20T15:29:41.236Z,28.75
2018-12-20T15:32:09.741Z,29.57
2018-12-20T15:34:38.256Z,28.77
2018-12-20T15:37:06.814Z,28.17
2018-12-20T15:39:35.320Z,28.20
2018-12-20T15:42:03.925Z,30.40
2018-12-20T15:44:32.462Z,30.97
2018-12-20T15:47:01.002Z,28.30
2018-12-20T15:49:29.531Z,29.00
2018-12-20T15:51:58.263Z,28.77
2018-12-20T15:54:26.813Z,29.98
2018-12-20T15:56:55.370Z,33.42
2018-12-20T15:59:23.860Z,34.13
2018-12-20T16:01:52.693Z,30.27
2018-12-20T16:04:21.249Z,32.50
2018-12-20T16:06:49.823Z,36.25
2018-12-20T16:09:18.506Z,31.82
2018-12-20T16:11:47.050Z,32.10
2018-12-20T16:14:15.625Z,32.50
2018-12-20T16:16:44.155Z,33.95
2018-12-20T16:19:12.736Z,39.90
2018-12-20T16:21:41.233Z,39.98
2018-12-20T16:24:09.735Z,35.48
2018-12-20T16:26:38.238Z,37.35
2018-12-20T16:29:06.748Z,33.40
2018-12-20T16:31:35.408Z,31.37
2018-12-20T16:34:04.022Z,33.90
2018-12-20T16:36:32.546Z,32.95
2018-12-20T16:39:01.056Z,30.97
2018-12-20T16:41:29.564Z,32.85
2018-12-20T16:43:58.068Z,33.15
2018-12-20T16:46:26.570Z,31.37
2018-12-20T16:48:55.103Z,34.03
2018-12-20T16:51:23.680Z,37.53
2018-12-20T16:53:52.248Z,36.73
2018-12-20T16:56:20.756Z,42.25
2018-12-20T16:58:49.374Z,66.87
2018-12-20T17:01:17.893Z,145.75
2018-12-20T17:03:46.450Z,63.33
2018-12-20T17:06:14.958Z,92.95
2018-12-20T17:08:48.167Z,51.25
2018-12-20T17:11:14.035Z,91.65
2018-12-20T17:13:42.581Z,103.85
2018-12-20T17:16:11.251Z,196.80
2018-12-20T17:18:39.756Z,103.00
2018-12-20T17:21:08.278Z,81.65
2018-12-20T17:23:36.875Z,46.20
2018-12-20T17:26:05.437Z,54.50
2018-12-20T17:28:33.943Z,42.30
2018-12-20T17:31:02.569Z,50.78
2018-12-20T17:33:31.095Z,49.67
2018-12-20T17:35:59.609Z,49.60
2018-12-20T17:38:28.141Z,49.70
2018-12-20T17:40:56.648Z,38.75
2018-12-20T17:43:25.171Z,40.10
2018-12-20T17:45:53.705Z,49.73
2018-12-20T17:48:29.021Z,41.30
2018-12-20T17:50:52.750Z,38.17
2018-12-20T17:53:21.291Z,40.52
2018-12-20T17:55:49.792Z,50.05
2018-12-20T17:58:18.299Z,41.75
2018-12-20T18:00:46.885Z,49.20
2018-12-20T18:03:15.543Z,49.90
2018-12-20T18:05:44.063Z,36.60
2018-12-20T18:08:12.561Z,44.45
2018-12-20T18:10:41.282Z,41.90
2018-12-20T18:13:09.789Z,39.50
2018-12-20T18:15:38.317Z,36.95
2018-12-20T18:18:06.874Z,41.20
2018-12-20T18:20:35.408Z,41.50
2018-12-20T18:23:03.914Z,32.48
2018-12-20T18:25:32.414Z,33.88
2018-12-20T18:28:00.948Z,33.15
2018-12-20T18:30:29.584Z,41.68
2018-12-20T18:32:58.112Z,35.80
2018-12-20T18:35:26.623Z,33.10
2018-12-20T18:37:55.217Z,37.65
2018-12-20T18:40:23.786Z,33.63
2018-12-20T18:42:52.308Z,36.30
2018-12-20T18:45:20.894Z,39.00
2018-12-20T18:47:49.444Z,64.53
2018-12-20T18:50:17.986Z,81.42
2018-12-20T18:52:46.537Z,48.40
2018-12-20T18:55:15.210Z,33.08
2018-12-20T18:57:43.819Z,48.58
2018-12-20T19:00:12.394Z,35.28
2018-12-20T19:02:40.945Z,34.43
2018-12-20T19:05:09.646Z,34.67
2018-12-20T19:07:38.182Z,40.43
2018-12-20T19:10:08.679Z,50.30
2018-12-20T19:12:37.242Z,33.75
2018-12-20T19:15:07.370Z,39.35
2018-12-20T19:17:35.885Z,32.28
2018-12-20T19:20:05.313Z,38.90
2018-12-20T19:22:33.850Z,44.00
2018-12-20T19:25:03.355Z,49.45
2018-12-20T19:27:31.933Z,39.23
2018-12-20T19:30:00.498Z,37.20
2018-12-20T19:32:29.022Z,30.23
2018-12-20T19:34:57.535Z,34.27
2018-12-20T19:37:26.085Z,32.63
2018-12-20T19:39:58.913Z,28.00
2018-12-20T19:42:27.443Z,29.77
2018-12-20T19:44:56.746Z,28.40
2018-12-20T19:47:25.375Z,30.20
2018-12-20T19:49:53.904Z,30.62
2018-12-20T19:52:22.424Z,34.70
2018-12-20T19:54:51.021Z,29.35
2018-12-20T19:57:19.521Z,33.13
2018-12-20T19:59:48.055Z,32.03
2018-12-20T20:02:16.575Z,29.42
2018-12-20T20:04:45.112Z,33.33
2018-12-20T20:07:13.623Z,36.70
2018-12-20T20:09:42.125Z,34.67
2018-12-20T20:12:10.652Z,30.65
2018-12-20T20:14:39.209Z,26.62
2018-12-20T20:17:07.732Z,28.50
2018-12-20T20:19:37.029Z,32.28
2018-12-20T20:22:05.554Z,28.32
2018-12-20T20:24:34.049Z,37.42
2018-12-20T20:27:02.582Z,34.92
2018-12-20T20:29:31.103Z,28.83
2018-12-20T20:31:59.764Z,42.23
2018-12-20T20:34:28.283Z,36.03
2018-12-20T20:36:56.856Z,37.03
2018-12-20T20:39:25.384Z,29.00
2018-12-20T20:41:54.122Z,39.42
2018-12-20T20:44:23.380Z,27.75
2018-12-20T20:46:51.930Z,34.65
2018-12-20T20:49:20.456Z,28.17
2018-12-20T20:51:48.981Z,28.87
2018-12-20T20:54:17.536Z,29.75
2018-12-20T20:56:46.045Z,27.45
2018-12-20T20:59:14.577Z,27.35
2018-12-20T21:01:43.089Z,27.85
2018-12-20T21:04:11.609Z,28.27
2018-12-20T21:06:46.943Z,26.65
2018-12-20T21:09:11.755Z,30.97
2018-12-20T21:11:40.506Z,25.50
2018-12-20T21:14:09.011Z,28.95
2018-12-20T21:16:37.501Z,25.32
2018-12-20T21:19:06.061Z,29.98
2018-12-20T21:21:34.577Z,25.48
2018-12-20T21:24:03.130Z,24.67
2018-12-20T21:26:31.656Z,27.75
2018-12-20T21:29:00.166Z,26.60
2018-12-20T21:31:28.710Z,26.87
2018-12-20T21:33:57.247Z,28.67
2018-12-20T21:36:25.770Z,28.12
2018-12-20T21:38:54.336Z,27.17
2018-12-20T21:41:22.960Z,31.12
2018-12-20T21:43:51.471Z,30.62
2018-12-20T21:46:19.974Z,30.48
2018-12-20T21:48:48.494Z,36.33
2018-12-20T21:51:17.024Z,33.00
2018-12-20T21:53:54.661Z,30.43
2018-12-20T21:56:17.071Z,29.63
2018-12-20T21:58:45.606Z,29.90
2018-12-20T22:01:14.237Z,31.45
2018-12-20T22:03:42.720Z,31.93
2018-12-20T22:06:11.236Z,31.93
2018-12-20T22:08:39.845Z,28.35
2018-12-20T22:11:08.361Z,30.40
2018-12-20T22:13:36.880Z,30.12
2018-12-20T22:16:05.378Z,31.25
2018-12-20T22:18:33.853Z,33.40
2018-12-20T22:21:02.376Z,32.05
2018-12-20T22:23:30.870Z,31.85
2018-12-20T22:25:59.361Z,31.12
2018-12-20T22:28:27.857Z,31.33
2018-12-20T22:30:56.379Z,33.58
2018-12-20T22:33:24.882Z,33.45
2018-12-20T22:35:53.383Z,32.53
2018-12-20T22:38:21.876Z,36.05
2018-12-20T22:40:50.425Z,33.55
2018-12-20T22:43:18.950Z,33.28
2018-12-20T22:45:47.464Z,33.73
2018-12-20T22:48:15.946Z,33.35
2018-12-20T22:50:44.447Z,34.80
2018-12-20T22:53:12.936Z,37.55
2018-12-20T22:55:41.460Z,32.20
2018-12-20T22:58:09.962Z,36.23
2018-12-20T23:00:38.506Z,34.58
2018-12-20T23:03:07.157Z,36.05
2018-12-20T23:05:36.760Z,32.75
2018-12-20T23:08:05.327Z,35.52
2018-12-20T23:10:33.836Z,35.20
2018-12-20T23:13:02.358Z,32.73
2018-12-20T23:15:30.986Z,34.95
2018-12-20T23:17:59.518Z,33.05
2018-12-20T23:20:28.024Z,33.30
2018-12-20T23:22:56.549Z,34.92
2018-12-20T23:25:25.035Z,33.10
2018-12-20T23:27:53.594Z,34.80
2018-12-20T23:30:22.166Z,36.80
2018-12-20T23:32:50.697Z,33.70
2018-12-20T23:35:19.214Z,36.83
2018-12-20T23:37:47.711Z,33.42
2018-12-20T23:40:16.240Z,35.20
2018-12-20T23:42:44.739Z,34.45
2018-12-20T23:45:13.325Z,33.92
2018-12-20T23:47:41.885Z,35.43
2018-12-20T23:50:10.532Z,34.15
2018-12-20T23:52:39.058Z,34.55
2018-12-20T23:55:07.879Z,35.92
2018-12-20T23:57:36.378Z,34.98
